KCVN/CVN METAR and TAF weather

Enter ICAO airport designator
Station Type Date Time Source
KCVN METAR 2019/04/18 19:56 UTC NOAA

KCVN 181956Z AUTO 33013G21KT 10SM FEW060 18/02 A3016 RMK AO2 SLP194 T01780017


Station Type Date Time Source
KCVN Decoded METAR 2019/04/18 19:56 UTC NOAA

Clovis, Clovis Municipal Airport, NM, United States (KCVN) 34-26N 103-05W
Apr 18, 2019 - 03:56 PM EDT / 2019.04.18 1956 UTC
Wind: from the NNW (330 degrees) at 15 MPH (13 KT) gusting to 24 MPH (21 KT):0
Visibility: 10 mile(s):0
Sky conditions: mostly clear
Temperature: 64.0 F (17.8 C)
Dew Point: 35.1 F (1.7 C)
Relative Humidity: 33%
Pressure (altimeter): 30.16 in. Hg (1021 hPa)
ob: KCVN 181956Z AUTO 33013G21KT 10SM FEW060 18/02 A3016 RMK AO2 SLP194 T01780017
cycle: 20

Station Type Date Time Source
KCVN TAF UTC NOAA

Error!

Example: see airport list